Jamestown, New York
Current Conditions -  °F | °C
As of 8:15 PM on Friday 31 Oct 2014 (Local Time) from KJHW Reporting Station
Overcast Overcast  
Wind Chill: 39°   Ceiling: 2900
Heat Index: 39°   Visibility: 7mi
Dew Point: 36°   Wind: 3mph
Humidity: 87%   Direction: 110°ESE
Pressure: 29.9"   Gusts: NA
Location:  42.1°N, 79.24°W
Report Text: KJHW 010015Z AUTO 11003KT 7SM SCT021 OVC029 04/02 A2990 RMK AO1
Loading
Personal Weather Stations






























Interactive Weather Map
Tropical Storm Tracking
New forecast layout! Learn more

10-Day Weather Forecast

Advertisements
Track Severe Weather on mobile